Time;durP1;ratioP1;P1;durP2;ratioP2;P2;SDS_P1;SDS_P2;PMS_P1;PMS_P2;Temp;Humidity;BMP_temperature;BMP_pressure;BME280_temperature;BME280_humidity;BME280_pressure;Samples;Min_cycle;Max_cycle;Signal;HPM_P1;HPM_P2
2022/05/29 00:01:23;;;;;;;24.60;9.67;;;18.90;99.90;;;19.28;77.37;94625.03;5037616;28;20489;-55
2022/05/29 00:03:51;;;;;;;12.43;8.20;;;18.90;99.90;;;19.30;77.70;94607.00;5042730;28;20462;-53
2022/05/29 00:06:19;;;;;;;20.10;8.37;;;18.90;99.90;;;19.29;78.36;94517.34;5045205;28;20853;-55
2022/05/29 00:08:47;;;;;;;40.00;9.23;;;18.90;99.90;;;19.23;77.53;94515.50;5044512;28;20464;-54
2022/05/29 00:11:14;;;;;;;15.20;8.40;;;18.90;99.90;;;19.17;77.85;94526.97;5041258;28;20628;-54
2022/05/29 00:13:42;;;;;;;17.27;8.70;;;18.80;99.90;;;19.13;77.82;94541.72;5043027;28;20960;-55
2022/05/29 00:16:09;;;;;;;19.70;8.00;;;18.80;99.90;;;19.11;77.46;94543.75;5044408;28;20533;-55
2022/05/29 00:18:38;;;;;;;16.40;7.60;;;18.70;99.90;;;19.06;77.76;94551.56;5041705;28;20467;-56
2022/05/29 00:21:06;;;;;;;16.23;8.70;;;18.70;99.90;;;18.97;77.65;94553.56;5039435;28;20555;-54
2022/05/29 00:23:41;;;;;;;18.33;8.77;;;18.70;99.90;;;18.90;77.61;94547.38;5045181;28;20463;-53
2022/05/29 00:26:08;;;;;;;36.17;9.73;;;18.60;99.90;;;18.85;78.37;94539.16;5040647;28;20486;-55
2022/05/29 00:28:35;;;;;;;26.93;8.90;;;18.50;99.90;;;18.82;77.81;94521.69;5042925;28;20480;-55
2022/05/29 00:31:02;;;;;;;26.47;9.40;;;18.50;99.90;;;18.80;78.43;94535.22;5040336;28;20502;-55
2022/05/29 00:33:30;;;;;;;20.57;8.30;;;18.50;99.90;;;18.77;78.17;94526.81;5044896;28;20467;-53
2022/05/29 00:35:57;;;;;;;13.07;7.77;;;18.40;99.90;;;18.70;78.09;94505.47;5043604;28;20530;-52
2022/05/29 00:38:24;;;;;;;17.60;7.60;;;18.40;99.90;;;18.66;78.15;94498.91;5043529;28;20529;-55
2022/05/29 00:40:59;;;;;;;21.50;7.67;;;18.40;99.90;;;18.60;78.26;94492.50;5039652;28;20472;-55
2022/05/29 00:43:27;;;;;;;19.43;7.93;;;18.30;99.90;;;18.56;79.09;94504.59;5039355;28;20451;-53
2022/05/29 00:45:57;;;;;;;19.13;8.30;;;18.30;99.90;;;18.52;79.30;94474.03;5043494;28;21015;-55
2022/05/29 00:48:25;;;;;;;20.67;9.40;;;18.20;99.90;;;18.51;78.99;94426.31;5040670;28;20988;-53
2022/05/29 00:50:54;;;;;;;21.97;9.67;;;18.20;99.90;;;18.51;79.61;94427.13;5044229;28;20504;-53
2022/05/29 00:53:22;;;;;;;18.80;8.80;;;18.20;99.90;;;18.55;79.82;94436.34;5038369;28;20957;-55
2022/05/29 00:56:00;;;;;;;16.33;8.70;;;18.20;99.90;;;18.59;79.40;94482.06;5040385;28;20490;-54
2022/05/29 00:58:27;;;;;;;18.10;8.57;;;18.20;99.90;;;18.55;78.67;94513.59;5043052;28;20881;-55
2022/05/29 01:00:56;;;;;;;27.07;8.30;;;18.20;99.90;;;18.50;79.26;94484.09;5034743;28;20497;-53
2022/05/29 01:03:23;;;;;;;15.03;7.80;;;18.20;99.90;;;18.44;78.75;94450.25;5040862;28;20467;-52
2022/05/29 01:05:51;;;;;;;23.40;8.97;;;18.20;99.90;;;18.36;79.48;94445.13;5043181;28;21176;-55
2022/05/29 01:08:20;;;;;;;25.10;7.97;;;18.10;99.90;;;18.26;80.05;94445.47;5041652;28;20460;-55
2022/05/29 01:11:13;;;;;;;13.90;7.83;;;18.00;99.90;;;18.16;79.53;94445.84;5039971;28;21027;-54
2022/05/29 01:13:49;;;;;;;12.50;8.60;;;18.00;99.90;;;18.10;80.45;94447.44;5042265;28;20543;-56
2022/05/29 01:16:22;;;;;;;27.73;10.40;;;17.90;99.90;;;18.07;81.00;94485.09;5042745;28;20547;-55
2022/05/29 01:18:54;;;;;;;23.47;9.43;;;17.80;99.90;;;18.05;81.22;94443.72;5040998;28;20503;-55
2022/05/29 01:21:36;;;;;;;27.30;8.20;;;17.80;99.90;;;18.04;80.54;94424.25;5043620;28;20542;-55
2022/05/29 01:24:32;;;;;;;24.10;9.90;;;17.80;99.90;;;18.02;80.79;94460.91;5041604;28;20462;-52
2022/05/29 01:27:25;;;;;;;20.30;9.90;;;17.80;99.90;;;18.02;81.27;94457.44;5039755;28;20913;-54
2022/05/29 01:30:01;;;;;;;21.23;9.60;;;17.80;99.90;;;18.02;81.23;94458.25;5042283;28;20496;-55
2022/05/29 01:32:54;;;;;;;13.77;8.63;;;17.80;99.90;;;18.04;81.62;94452.72;5039756;28;20443;-54
2022/05/29 01:35:25;;;;;;;25.00;10.13;;;17.80;99.90;;;18.04;81.21;94453.53;5041164;28;20476;-54
2022/05/29 01:37:54;;;;;;;21.63;11.10;;;17.80;99.90;;;18.05;82.12;94457.03;5042238;28;20460;-56
2022/05/29 01:40:27;;;;;;;15.57;9.30;;;17.80;99.90;;;18.07;81.14;94458.47;5040958;28;20476;-54
2022/05/29 01:42:57;;;;;;;32.33;10.43;;;17.80;99.90;;;18.10;81.81;94460.75;5039362;28;20460;-55
2022/05/29 01:45:30;;;;;;;23.73;10.20;;;17.80;99.90;;;18.15;81.75;94448.69;5041881;28;20479;-52
2022/05/29 01:48:05;;;;;;;15.03;8.60;;;17.80;99.90;;;18.22;82.68;94453.03;5041169;28;20456;-53
2022/05/29 01:50:36;;;;;;;20.07;8.60;;;17.90;99.90;;;18.30;83.22;94461.88;5038057;28;20582;-54
2022/05/29 01:53:08;;;;;;;18.03;8.47;;;17.90;99.90;;;18.34;82.89;94453.31;5044596;28;20448;-55
2022/05/29 01:55:40;;;;;;;18.27;10.40;;;18.00;99.90;;;18.40;82.92;94454.31;5041561;28;20475;-54
2022/05/29 01:58:10;;;;;;;23.50;9.80;;;18.00;99.90;;;18.44;82.90;94453.72;5039043;28;20941;-54
2022/05/29 02:00:39;;;;;;;18.67;9.57;;;18.10;99.90;;;18.50;83.31;94445.97;5045627;28;20492;-55
2022/05/29 02:03:08;;;;;;;18.30;9.50;;;18.10;99.90;;;18.53;82.29;94442.91;5043273;28;20514;-55
2022/05/29 02:05:40;;;;;;;20.30;9.10;;;18.20;99.90;;;18.58;82.56;94438.63;5045513;28;20823;-55
2022/05/29 02:08:13;;;;;;;22.60;10.00;;;18.20;99.90;;;18.60;82.24;94428.59;5044708;28;20979;-56
2022/05/29 02:10:44;;;;;;;34.43;9.80;;;18.20;99.90;;;18.63;81.73;94414.06;5043180;28;22589;-55
2022/05/29 02:13:14;;;;;;;25.77;10.77;;;18.30;99.90;;;18.65;82.38;94409.34;5042217;28;20487;-55
2022/05/29 02:15:46;;;;;;;25.20;10.63;;;18.30;99.90;;;18.67;81.74;94409.97;5045236;28;20528;-53
2022/05/29 02:18:19;;;;;;;21.07;9.10;;;18.30;99.90;;;18.67;81.74;94411.78;5045761;28;20875;-52
2022/05/29 02:20:48;;;;;;;20.13;11.03;;;18.30;99.90;;;18.68;81.13;94408.94;5044955;28;20511;-55
2022/05/29 02:23:21;;;;;;;21.73;10.47;;;18.30;99.90;;;18.70;81.88;94403.41;5044899;28;20493;-55
2022/05/29 02:25:48;;;;;;;23.37;10.37;;;18.30;99.90;;;18.69;81.77;94397.25;5045248;28;20475;-53
2022/05/29 02:28:20;;;;;;;23.47;13.03;;;18.30;99.90;;;18.70;81.40;94406.06;5045602;28;21002;-55
2022/05/29 02:30:54;;;;;;;28.40;13.93;;;18.40;99.90;;;18.70;81.64;94406.06;5044765;28;20499;-53
2022/05/29 02:33:24;;;;;;;31.63;15.33;;;18.40;99.90;;;18.70;81.23;94406.91;5040913;28;20451;-55
2022/05/29 02:36:19;;;;;;;30.27;14.70;;;18.40;99.90;;;18.71;82.03;94405.06;5044547;28;20479;-53
2022/05/29 02:38:51;;;;;;;25.70;13.83;;;18.40;99.90;;;18.70;81.71;94403.41;5042485;28;20447;-54
2022/05/29 02:41:23;;;;;;;18.33;12.30;;;18.30;99.90;;;18.69;81.11;94402.59;5045982;28;20480;-55
2022/05/29 02:43:55;;;;;;;20.70;11.70;;;18.30;99.90;;;18.69;81.19;94391.94;5044069;28;20590;-54
2022/05/29 02:46:28;;;;;;;19.60;11.20;;;18.30;99.90;;;18.70;81.08;94387.41;5045514;28;20987;-54
2022/05/29 02:48:58;;;;;;;17.30;9.70;;;18.30;99.90;;;18.67;80.50;94379.81;5046397;28;21003;-54
2022/05/29 02:51:30;;;;;;;19.87;9.63;;;18.40;99.90;;;18.64;80.28;94378.41;5041553;28;20483;-53
2022/05/29 02:53:57;;;;;;;20.57;9.37;;;18.30;99.90;;;18.60;80.28;94388.63;5046406;28;21027;-54
2022/05/29 02:56:24;;;;;;;18.63;8.80;;;18.30;99.90;;;18.56;79.73;94374.09;5041775;28;20448;-53
2022/05/29 02:58:53;;;;;;;22.53;7.50;;;18.20;99.90;;;18.52;79.80;94362.19;5040558;28;20460;-55
2022/05/29 03:01:34;;;;;;;22.57;8.17;;;18.20;99.90;;;18.51;80.09;94357.06;5043898;28;21069;-57
2022/05/29 03:04:11;;;;;;;12.37;7.77;;;18.20;99.90;;;18.51;80.30;94359.72;5043710;28;20466;-54
2022/05/29 03:06:48;;;;;;;24.43;8.80;;;18.20;99.90;;;18.51;80.59;94351.72;5043045;28;20567;-54
2022/05/29 03:09:26;;;;;;;19.17;8.77;;;18.10;99.90;;;18.49;79.86;94354.59;5039761;28;20452;-53
2022/05/29 03:11:53;;;;;;;22.20;9.10;;;18.20;99.90;;;18.50;80.24;94344.75;5042712;28;20550;-53
2022/05/29 03:14:36;;;;;;;25.23;9.37;;;18.20;99.90;;;18.49;79.82;94349.28;5043774;28;20903;-55
2022/05/29 03:17:14;;;;;;;24.50;8.53;;;18.20;99.90;;;18.46;79.48;94344.34;5040592;28;20460;-54
2022/05/29 03:19:49;;;;;;;27.53;7.20;;;18.10;99.90;;;18.41;79.50;94338.81;5043621;28;21019;-52
2022/05/29 03:22:24;;;;;;;16.77;7.90;;;18.10;99.90;;;18.36;78.91;94338.59;5044020;28;20956;-53
2022/05/29 03:24:54;;;;;;;12.60;6.83;;;18.00;99.90;;;18.30;79.50;94334.91;5037965;28;20617;-53
2022/05/29 03:27:29;;;;;;;19.40;7.33;;;18.00;99.90;;;18.25;79.41;94337.34;5040694;28;20455;-53
2022/05/29 03:30:01;;;;;;;13.03;6.77;;;18.00;99.90;;;18.21;79.00;94336.91;5040485;28;20578;-52
2022/05/29 03:32:31;;;;;;;27.87;6.83;;;17.90;99.90;;;18.19;78.90;94349.59;5042483;28;20526;-55
2022/05/29 03:34:58;;;;;;;11.13;6.40;;;17.90;99.90;;;18.17;79.09;94343.69;5040953;28;21008;-54
2022/05/29 03:37:27;;;;;;;11.73;6.47;;;17.90;99.90;;;18.14;79.18;94340.56;5042450;28;20478;-55
2022/05/29 03:39:54;;;;;;;14.23;5.90;;;17.80;99.90;;;18.09;78.81;94338.50;5041852;28;21201;-53
2022/05/29 03:42:21;;;;;;;13.33;5.03;;;17.80;99.90;;;18.02;78.64;94335.84;5043083;28;20513;-53
2022/05/29 03:44:48;;;;;;;22.83;6.53;;;17.80;99.90;;;17.96;78.70;94339.28;5037858;28;20522;-51
2022/05/29 03:47:15;;;;;;;10.00;5.73;;;17.70;99.90;;;17.89;78.18;94336.59;5043270;28;20456;-54
2022/05/29 03:49:44;;;;;;;15.53;5.73;;;17.60;99.90;;;17.79;78.88;94336.09;5042122;28;21085;-52
2022/05/29 03:52:11;;;;;;;10.77;5.20;;;17.60;99.90;;;17.74;78.54;94335.88;5042081;28;20483;-55
2022/05/29 03:54:39;;;;;;;14.67;5.57;;;17.50;99.90;;;17.72;78.76;94330.75;5040165;28;20529;-55
2022/05/29 03:57:06;;;;;;;13.87;5.83;;;17.50;99.90;;;17.72;78.92;94327.25;5042120;28;21049;-55
2022/05/29 03:59:33;;;;;;;13.67;5.33;;;17.50;99.90;;;17.71;78.84;94326.47;5040845;28;20837;-55
2022/05/29 04:02:01;;;;;;;10.43;6.20;;;17.50;99.90;;;17.74;78.75;94330.56;5041999;28;20514;-54
2022/05/29 04:04:28;;;;;;;13.83;5.40;;;17.40;99.90;;;17.76;79.39;94317.06;5040666;28;20495;-53
2022/05/29 04:06:57;;;;;;;12.83;6.00;;;17.50;99.90;;;17.82;79.32;94327.72;5039482;28;20916;-53
2022/05/29 04:12:13;;;;;;;26.33;5.60;;;17.60;99.90;;;17.99;79.22;94328.25;5041337;28;20612;-54
2022/05/29 04:14:43;;;;;;;14.50;5.30;;;17.60;99.90;;;18.09;78.97;94330.53;5044044;28;20489;-54
2022/05/29 04:17:11;;;;;;;10.63;5.90;;;17.70;99.90;;;18.16;79.07;94319.91;5038775;28;20829;-54
2022/05/29 04:19:39;;;;;;;18.23;5.93;;;17.80;99.90;;;18.24;78.61;94320.53;5038089;28;20480;-55
2022/05/29 04:22:11;;;;;;;11.47;6.03;;;17.90;99.90;;;18.32;78.81;94327.53;5042463;28;20797;-52
2022/05/29 04:24:38;;;;;;;18.00;8.00;;;18.00;99.90;;;18.39;78.32;94327.56;5043213;28;20491;-54
2022/05/29 04:27:09;;;;;;;10.10;5.23;;;18.00;99.90;;;18.45;77.96;94329.38;5042997;28;20827;-52
2022/05/29 04:29:36;;;;;;;18.47;6.00;;;18.10;99.90;;;18.53;78.15;94328.38;5039191;28;20924;-53
2022/05/29 04:34:55;;;;;;;20.77;5.30;;;18.30;99.90;;;18.71;77.79;94336.59;5031571;28;20502;-55
2022/05/29 04:37:24;;;;;;;11.03;5.50;;;18.40;99.90;;;18.78;77.40;94336.63;5042302;28;20459;-52
2022/05/29 04:39:51;;;;;;;23.77;6.43;;;18.40;99.90;;;18.85;76.60;94342.78;5039575;28;20475;-57
2022/05/29 04:42:18;;;;;;;13.20;6.27;;;18.50;99.90;;;18.94;76.58;94336.25;5041797;28;20487;-54
2022/05/29 04:44:46;;;;;;;14.33;5.97;;;18.60;99.90;;;19.04;76.13;94346.50;5041033;28;20484;-55
2022/05/29 04:47:13;;;;;;;13.23;5.47;;;18.70;99.90;;;19.14;76.58;94343.41;5040176;28;20460;-52
2022/05/29 04:49:40;;;;;;;13.80;6.07;;;18.80;99.90;;;19.24;76.04;94345.66;5041313;28;20485;-54
2022/05/29 04:52:08;;;;;;;9.50;4.60;;;18.90;99.90;;;19.32;75.67;94345.47;5042289;28;21144;-55
2022/05/29 04:54:37;;;;;;;8.50;4.53;;;18.90;99.90;;;19.37;75.39;94340.31;5039926;28;20475;-54
2022/05/29 04:57:06;;;;;;;15.13;5.03;;;19.00;99.90;;;19.43;74.95;94331.50;5043525;28;20452;-52
2022/05/29 04:59:33;;;;;;;5.63;3.90;;;19.10;99.90;;;19.52;74.80;94321.44;5039829;28;20479;-53
2022/05/29 05:02:01;;;;;;;15.80;4.40;;;19.20;99.90;;;19.60;74.65;94321.19;5042731;28;20453;-53
2022/05/29 05:04:29;;;;;;;8.97;4.90;;;19.20;99.90;;;19.68;73.90;94325.50;5041627;28;20486;-55
2022/05/29 05:06:58;;;;;;;11.30;4.47;;;19.30;99.90;;;19.75;73.47;94330.81;5040332;28;20459;-53
2022/05/29 05:09:25;;;;;;;11.43;4.00;;;19.40;99.90;;;19.80;73.28;94337.19;5042196;28;20471;-55
2022/05/29 05:11:54;;;;;;;8.50;4.43;;;19.40;99.90;;;19.84;73.58;94325.03;5038094;28;20582;-55
2022/05/29 05:14:22;;;;;;;10.60;4.87;;;19.50;99.90;;;19.89;73.15;94324.41;5039514;28;20967;-54
2022/05/29 05:16:49;;;;;;;8.33;4.43;;;19.50;99.90;;;19.95;73.01;94328.91;5043690;28;20845;-56
2022/05/29 05:19:21;;;;;;;16.07;4.50;;;19.60;99.90;;;20.02;72.91;94326.22;5042567;28;20494;-55
2022/05/29 05:21:49;;;;;;;15.23;5.07;;;19.70;99.90;;;20.08;72.30;94335.22;5040136;28;20921;-55
2022/05/29 05:24:17;;;;;;;9.80;4.37;;;19.70;99.90;;;20.14;72.14;94331.72;5040236;28;20922;-54
2022/05/29 05:26:45;;;;;;;14.43;5.00;;;19.70;99.90;;;20.20;72.02;94325.50;5037593;28;20992;-53
2022/05/29 05:29:14;;;;;;;11.03;4.60;;;19.80;99.90;;;20.28;71.81;94330.63;5041666;28;20471;-54
2022/05/29 05:31:41;;;;;;;22.27;5.40;;;19.90;99.90;;;20.34;71.24;94320.94;5038399;28;20988;-55
2022/05/29 05:34:09;;;;;;;12.60;6.10;;;19.90;99.90;;;20.42;71.32;94318.84;5040077;28;20563;-54
2022/05/29 05:36:36;;;;;;;12.00;4.30;;;20.00;99.90;;;20.53;70.72;94316.53;5043052;28;20453;-55
2022/05/29 05:39:03;;;;;;;10.00;4.50;;;20.10;99.90;;;20.61;70.08;94321.59;5044613;28;20455;-54
2022/05/29 05:41:31;;;;;;;13.57;4.07;;;20.20;99.90;;;20.63;69.48;94327.53;5040666;28;20455;-54
2022/05/29 05:43:58;;;;;;;9.90;4.20;;;20.30;99.90;;;20.64;68.81;94317.69;5046308;28;20479;-56
2022/05/29 05:46:27;;;;;;;8.60;3.83;;;20.30;99.90;;;20.75;69.01;94331.19;5044441;28;20505;-57
2022/05/29 05:48:55;;;;;;;9.33;5.27;;;20.40;99.90;;;20.88;67.31;94324.94;5044405;28;20459;-53
2022/05/29 05:51:22;;;;;;;9.50;3.97;;;20.50;99.90;;;20.91;67.37;94331.69;5046902;28;20501;-56
2022/05/29 05:53:49;;;;;;;11.93;4.20;;;20.50;99.90;;;20.87;67.57;94323.31;5045618;28;20463;-56
2022/05/29 05:56:18;;;;;;;15.13;4.40;;;20.50;99.90;;;20.94;67.27;94321.41;5045126;28;20482;-54
2022/05/29 05:58:47;;;;;;;8.70;4.20;;;20.60;99.90;;;21.08;67.09;94319.41;5046611;28;20456;-53
2022/05/29 06:01:17;;;;;;;12.43;4.00;;;20.70;99.90;;;21.21;66.62;94312.31;5047102;28;20972;-57
2022/05/29 06:03:46;;;;;;;10.17;4.50;;;20.80;99.70;;;21.25;66.34;94319.69;5047817;28;20983;-53
2022/05/29 06:06:13;;;;;;;16.70;4.00;;;20.90;99.50;;;21.31;65.84;94321.47;5041798;28;20840;-56
2022/05/29 06:08:41;;;;;;;9.33;3.70;;;20.90;99.10;;;21.40;65.79;94327.38;5035066;28;20495;-55
2022/05/29 06:11:08;;;;;;;11.17;3.83;;;21.00;99.10;;;21.59;65.60;94330.09;5034495;28;20485;-54
2022/05/29 06:13:36;;;;;;;23.53;4.60;;;21.10;99.10;;;21.79;65.18;94320.00;5036681;28;20538;-56
2022/05/29 06:16:05;;;;;;;8.20;3.37;;;21.30;98.90;;;22.02;64.55;94322.00;5036803;28;21067;-56
2022/05/29 06:18:32;;;;;;;15.03;3.73;;;21.50;98.40;;;22.12;63.86;94312.63;5037151;28;20983;-55
2022/05/29 06:21:04;;;;;;;14.53;4.40;;;21.70;97.70;;;22.16;63.01;94297.75;5038991;28;20495;-53
2022/05/29 06:23:32;;;;;;;12.70;4.00;;;21.80;97.50;;;22.30;63.23;94296.53;5035825;28;21067;-53
2022/05/29 06:26:02;;;;;;;9.03;3.77;;;21.90;97.20;;;22.46;62.37;94305.81;5036120;28;20522;-56
2022/05/29 06:28:29;;;;;;;22.80;4.83;;;22.00;96.80;;;22.53;62.78;94297.69;5031518;28;20547;-55
2022/05/29 06:30:57;;;;;;;14.80;3.87;;;22.10;96.70;;;22.68;62.04;94290.03;5031543;28;20476;-56
2022/05/29 06:33:26;;;;;;;8.07;3.10;;;22.20;96.50;;;22.74;62.39;94288.28;5035953;28;20499;-58
2022/05/29 06:35:53;;;;;;;12.63;4.23;;;22.30;96.30;;;22.85;61.29;94284.81;5031656;28;20559;-53
2022/05/29 06:38:22;;;;;;;10.77;3.70;;;22.40;95.90;;;23.02;61.62;94274.25;5034093;28;20461;-55
2022/05/29 06:40:50;;;;;;;9.30;3.70;;;22.60;96.10;;;23.30;60.61;94277.28;5034558;28;20479;-53
2022/05/29 06:43:17;;;;;;;10.30;3.40;;;22.80;95.80;;;23.57;60.88;94281.13;5039977;28;20487;-55
2022/05/29 06:45:45;;;;;;;8.13;3.60;;;23.00;95.30;;;23.85;59.67;94276.91;5040984;28;20464;-55
2022/05/29 06:48:12;;;;;;;9.43;3.80;;;23.30;94.60;;;24.04;57.46;94272.19;5045403;28;20502;-54
2022/05/29 06:50:39;;;;;;;6.47;3.23;;;23.50;92.90;;;24.21;57.57;94274.94;5042801;28;20481;-57
2022/05/29 06:53:07;;;;;;;12.57;3.40;;;23.70;92.80;;;24.37;56.15;94269.84;5046817;28;20484;-59
2022/05/29 06:55:36;;;;;;;8.20;2.90;;;23.80;91.90;;;24.52;57.23;94262.91;5046136;28;20562;-54
2022/05/29 06:58:03;;;;;;;9.90;3.47;;;24.00;92.20;;;24.70;56.71;94267.25;5042195;28;20451;-57
2022/05/29 07:08:46;;;;;;;7.20;4.17;;;24.70;90.60;;;25.41;55.22;94260.59;5042650;28;20890;-56
2022/05/29 07:11:17;;;;;;;9.40;3.53;;;24.90;90.40;;;25.55;54.45;94259.16;5039297;28;20534;-53
2022/05/29 07:13:45;;;;;;;35.83;8.40;;;25.00;89.70;;;25.70;54.17;94253.19;5042316;28;20506;-55
2022/05/29 07:16:12;;;;;;;23.43;6.00;;;25.10;89.50;;;25.87;53.47;94250.44;5045772;28;20479;-55
2022/05/29 07:18:39;;;;;;;15.30;4.40;;;25.30;88.10;;;26.01;53.33;94237.44;5043239;28;20821;-56
2022/05/29 07:21:07;;;;;;;24.93;7.30;;;25.40;87.60;;;26.16;53.16;94244.84;5044153;28;21097;-54
2022/05/29 07:23:35;;;;;;;13.57;5.03;;;25.60;86.80;;;26.27;52.75;94237.69;5044750;28;20967;-55
2022/05/29 07:26:03;;;;;;;11.40;4.43;;;25.70;85.60;;;26.42;52.31;94237.84;5045760;28;20995;-56
2022/05/29 07:28:31;;;;;;;14.23;4.00;;;25.80;84.70;;;26.50;51.58;94239.28;5043046;28;20466;-54
2022/05/29 07:30:59;;;;;;;9.77;3.53;;;25.90;82.40;;;26.59;51.50;94247.72;5045479;28;20491;-54
2022/05/29 07:33:26;;;;;;;9.13;2.93;;;26.10;82.70;;;26.69;51.19;94247.84;5038411;28;20487;-53
2022/05/29 07:35:53;;;;;;;11.03;3.33;;;26.10;81.10;;;26.78;50.59;94240.09;5043661;28;20471;-52
2022/05/29 07:38:21;;;;;;;7.23;3.23;;;26.30;80.20;;;26.92;49.42;94237.78;5044306;28;20517;-54
2022/05/29 07:40:48;;;;;;;13.03;3.33;;;26.40;78.00;;;26.97;49.46;94244.03;5044628;28;20483;-54
2022/05/29 07:43:22;;;;;;;11.40;2.63;;;26.40;77.60;;;26.91;47.10;94239.69;5045414;28;20947;-56
2022/05/29 07:45:53;;;;;;;13.40;2.80;;;26.40;73.00;;;26.89;48.77;94246.41;5040588;28;20471;-56
2022/05/29 07:48:21;;;;;;;11.00;3.30;;;26.40;75.40;;;26.91;49.14;94228.06;5044369;28;20535;-55
2022/05/29 07:50:49;;;;;;;14.37;3.37;;;26.40;75.40;;;27.01;48.50;94233.53;5043258;28;20470;-54
2022/05/29 07:53:17;;;;;;;15.43;3.97;;;26.50;74.80;;;27.12;48.64;94234.44;5044458;28;20498;-54
2022/05/29 07:55:45;;;;;;;11.73;2.80;;;26.60;74.50;;;27.31;47.63;94246.50;5044293;28;20467;-57
2022/05/29 07:58:13;;;;;;;17.73;3.20;;;26.80;73.50;;;27.46;47.76;94234.94;5043717;28;20447;-53
2022/05/29 08:00:40;;;;;;;16.13;3.83;;;26.90;72.90;;;27.65;47.76;94226.41;5045360;28;20574;-54
2022/05/29 08:03:10;;;;;;;9.07;3.20;;;27.10;71.70;;;27.71;46.51;94233.47;5040253;28;21031;-55
2022/05/29 08:05:37;;;;;;;12.17;3.47;;;27.10;69.10;;;27.57;46.56;94235.81;5045387;28;21059;-55
2022/05/29 08:08:08;;;;;;;20.87;2.73;;;27.10;67.00;;;27.36;46.20;94237.59;5043450;28;20471;-56
2022/05/29 08:10:37;;;;;;;15.77;3.50;;;27.00;67.20;;;27.17;46.57;94229.06;5042219;28;20537;-54
2022/05/29 08:13:04;;;;;;;19.80;3.87;;;26.80;68.10;;;27.06;47.00;94225.47;5044784;28;20490;-55
2022/05/29 08:15:31;;;;;;;14.17;3.33;;;26.70;68.40;;;26.98;47.22;94215.16;5045246;28;20561;-55
2022/05/29 08:17:59;;;;;;;8.53;3.10;;;26.60;69.70;;;26.95;48.02;94210.28;5044304;28;20456;-54
2022/05/29 08:20:29;;;;;;;13.27;3.77;;;26.60;70.60;;;27.13;47.92;94212.56;5041381;28;20467;-54
2022/05/29 08:22:56;;;;;;;10.43;3.70;;;26.70;71.10;;;27.27;47.66;94212.13;5044997;28;20451;-52
2022/05/29 08:30:54;;;;;;;4.80;2.70;;;26.70;67.20;;;27.16;46.83;94214.75;5032384;28;20470;-53
2022/05/29 08:33:23;;;;;;;8.67;2.77;;;26.70;67.90;;;27.11;47.25;94206.63;5036076;28;20627;-54
2022/05/29 08:35:54;;;;;;;15.03;3.93;;;26.70;68.80;;;27.17;47.15;94210.16;5037818;28;20578;-54
2022/05/29 08:38:21;;;;;;;13.00;4.30;;;26.70;68.40;;;27.29;46.42;94212.66;5041211;28;20509;-55
2022/05/29 08:40:50;;;;;;;20.37;3.40;;;26.80;67.60;;;27.30;45.78;94209.72;5041399;28;20544;-55
2022/05/29 08:43:25;;;;;;;7.50;2.80;;;26.90;66.70;;;27.34;46.50;94199.22;5043869;28;20859;-56
2022/05/29 08:45:52;;;;;;;8.13;2.53;;;26.90;66.70;;;27.43;46.14;94208.47;5038672;28;20482;-54
2022/05/29 08:48:24;;;;;;;6.13;2.23;;;27.00;65.90;;;27.51;45.68;94197.19;5041204;28;20619;-55
2022/05/29 08:51:13;;;;;;;6.77;2.57;;;27.10;66.00;;;27.66;45.83;94188.31;5041455;28;20470;-56
2022/05/29 08:53:45;;;;;;;7.73;2.83;;;27.20;65.60;;;27.92;45.92;94199.22;5041153;28;20483;-54
2022/05/29 08:56:24;;;;;;;6.87;2.70;;;27.40;65.70;;;28.15;45.63;94175.53;5043662;28;20567;-56
2022/05/29 08:59:07;;;;;;;10.17;3.43;;;27.60;64.80;;;28.30;43.80;94182.88;5043472;28;20474;-55
2022/05/29 09:01:46;;;;;;;7.70;4.20;;;27.80;62.90;;;28.45;43.77;94177.47;5040445;28;20447;-55
2022/05/29 09:04:19;;;;;;;16.10;3.47;;;27.90;62.60;;;28.67;43.81;94171.03;5041735;28;20800;-57
2022/05/29 09:06:50;;;;;;;8.00;2.73;;;28.10;61.40;;;28.88;42.11;94171.84;5044275;28;20451;-54
2022/05/29 09:09:29;;;;;;;12.47;3.70;;;28.30;59.10;;;29.03;42.65;94152.03;5040052;28;20474;-56
2022/05/29 09:11:58;;;;;;;12.63;3.40;;;28.50;59.90;;;29.29;42.46;94160.97;5045418;28;20455;-57
2022/05/29 09:14:34;;;;;;;11.70;3.80;;;28.70;58.60;;;29.46;41.47;94172.28;5043507;28;20494;-55
2022/05/29 09:17:06;;;;;;;32.27;4.23;;;28.90;57.70;;;29.51;40.87;94163.31;5046759;28;20447;-57
2022/05/29 09:19:37;;;;;;;9.67;3.20;;;29.00;56.70;;;29.54;40.58;94161.97;5044837;28;20459;-55
2022/05/29 09:22:14;;;;;;;7.70;3.80;;;29.00;55.80;;;29.47;39.95;94167.69;5043160;28;20447;-56
2022/05/29 09:24:53;;;;;;;9.17;3.13;;;29.00;55.00;;;29.35;39.71;94169.91;5039620;28;20463;-55
2022/05/29 09:27:22;;;;;;;10.63;2.50;;;28.90;54.40;;;29.14;40.87;94156.34;5040303;28;20454;-59
2022/05/29 09:29:50;;;;;;;21.13;4.13;;;28.80;55.60;;;28.95;42.03;94166.94;5044732;28;20490;-55
2022/05/29 09:32:20;;;;;;;16.53;3.83;;;28.60;56.50;;;28.69;42.44;94152.63;5041598;28;21008;-54
2022/05/29 09:34:59;;;;;;;8.50;3.47;;;28.40;56.90;;;28.39;42.46;94137.97;5039705;28;20494;-55
2022/05/29 09:37:41;;;;;;;19.13;3.63;;;28.10;57.20;;;28.11;42.57;94152.81;5037114;28;20443;-55
2022/05/29 09:40:16;;;;;;;6.80;3.30;;;27.80;57.70;;;27.84;42.61;94143.81;5045192;28;20579;-52
2022/05/29 09:42:44;;;;;;;8.33;3.40;;;27.50;57.70;;;27.59;43.85;94135.59;5044657;28;20444;-55
2022/05/29 09:45:15;;;;;;;15.93;3.97;;;27.30;58.50;;;27.41;43.82;94118.78;5046254;28;20878;-58
2022/05/29 09:50:44;;;;;;;11.50;3.90;;;26.90;59.80;;;27.23;45.62;94121.91;5044211;28;21128;-52
2022/05/29 09:53:15;;;;;;;14.53;3.97;;;26.90;61.80;;;27.24;46.23;94118.16;5042182;28;20571;-54
2022/05/29 09:55:59;;;;;;;15.67;3.63;;;26.80;63.00;;;27.23;46.33;94111.91;5045637;28;20463;-54
2022/05/29 09:58:30;;;;;;;11.63;3.73;;;26.80;63.40;;;27.19;46.14;94106.25;5044810;28;20436;-55
2022/05/29 10:01:02;;;;;;;15.77;3.67;;;26.80;63.40;;;27.22;46.53;94095.97;5042679;28;20550;-55
2022/05/29 10:03:50;;;;;;;13.23;4.30;;;26.70;64.30;;;27.22;45.82;94101.38;5044641;28;20561;-53
2022/05/29 10:06:23;;;;;;;15.50;3.73;;;26.80;63.50;;;27.17;46.28;94085.97;5043428;28;20540;-54
2022/05/29 10:08:53;;;;;;;24.97;4.00;;;26.70;64.00;;;27.11;46.36;94098.66;5043704;28;21038;-55
2022/05/29 10:11:22;;;;;;;17.17;3.53;;;26.70;64.00;;;27.06;46.50;94093.19;5044131;28;20474;-53
2022/05/29 10:13:50;;;;;;;10.40;3.90;;;26.60;64.60;;;27.05;46.70;94086.19;5042840;28;20494;-56
2022/05/29 10:16:35;;;;;;;14.27;4.00;;;26.60;64.80;;;27.08;46.55;94084.84;5043785;28;20467;-55
2022/05/29 10:19:03;;;;;;;6.57;3.37;;;26.70;65.00;;;27.07;46.74;94092.13;5042080;28;20440;-56
2022/05/29 10:21:31;;;;;;;13.63;3.30;;;26.60;64.60;;;27.00;46.13;94081.59;5044456;28;20510;-55
2022/05/29 10:24:19;;;;;;;12.63;3.60;;;26.60;64.30;;;26.92;47.18;94079.38;5041455;28;20444;-55
2022/05/29 10:26:50;;;;;;;16.13;3.87;;;26.50;65.60;;;26.93;46.74;94080.19;5044930;28;20469;-55
2022/05/29 10:29:19;;;;;;;6.70;3.13;;;26.50;65.70;;;26.96;46.80;94066.19;5043629;28;20466;-54
2022/05/29 10:31:49;;;;;;;7.93;3.77;;;26.50;65.60;;;26.99;46.91;94069.16;5044402;28;20444;-54
2022/05/29 10:34:23;;;;;;;17.07;3.50;;;26.50;66.20;;;27.08;46.66;94071.34;5044580;28;20497;-54
2022/05/29 10:36:50;;;;;;;19.37;3.97;;;26.60;66.50;;;27.12;46.72;94065.16;5044955;28;20475;-55
2022/05/29 10:39:23;;;;;;;12.07;3.53;;;26.60;66.10;;;27.15;46.69;94086.22;5046383;28;20466;-55
2022/05/29 10:41:50;;;;;;;8.17;4.10;;;26.70;65.90;;;27.15;46.65;94077.31;5042830;28;20507;-55
2022/05/29 10:44:38;;;;;;;18.00;3.30;;;26.70;65.80;;;27.08;46.18;94087.53;5043133;28;20472;-53
2022/05/29 10:47:09;;;;;;;16.43;4.03;;;26.70;64.70;;;26.99;46.51;94093.44;5044245;28;20504;-55
2022/05/29 10:49:39;;;;;;;15.47;3.57;;;26.60;65.20;;;26.96;46.63;94080.47;5043425;28;20467;-55